Time;durP1;ratioP1;P1;durP2;ratioP2;P2;SDS_P1;SDS_P2;PMS_P1;PMS_P2;Temp;Humidity;BMP_temperature;BMP_pressure;BME280_temperature;BME280_humidity;BME280_pressure;Samples;Min_cycle;Max_cycle;Signal;HPM_P1;HPM_P2
2022/08/20 00:00:59;;;;;;;1.30;1.30;;;21.10;86.10;21.50;96340.00;;;;5072189;28;20223;-84
2022/08/20 00:03:37;;;;;;;1.80;1.70;;;21.10;86.30;21.50;96334.00;;;;5089304;28;20201;-84
2022/08/20 00:06:14;;;;;;;1.90;1.80;;;21.10;86.50;21.50;96337.00;;;;5092012;28;20614;-84
2022/08/20 00:08:47;;;;;;;1.73;1.63;;;21.10;86.50;21.50;96338.00;;;;5092228;28;20881;-85
2022/08/20 00:11:26;;;;;;;1.70;1.60;;;21.10;86.50;21.50;96338.00;;;;5092116;28;20192;-84
2022/08/20 00:14:03;;;;;;;2.07;1.87;;;21.10;86.50;21.50;96329.00;;;;5091553;28;20667;-85
2022/08/20 00:16:42;;;;;;;2.80;1.93;;;21.10;86.50;21.50;96337.00;;;;5091404;28;20193;-84
2022/08/20 00:19:21;;;;;;;1.77;1.67;;;21.00;86.60;21.40;96334.00;;;;5091490;28;20656;-85
2022/08/20 00:21:56;;;;;;;2.20;2.00;;;21.00;86.80;21.50;96336.00;;;;5090954;28;20227;-84
2022/08/20 00:24:26;;;;;;;1.80;1.70;;;21.10;86.90;21.50;96327.00;;;;5091068;28;20252;-85
2022/08/20 00:27:04;;;;;;;2.70;2.50;;;21.00;86.80;21.50;96330.00;;;;5091276;28;20195;-84
2022/08/20 00:29:34;;;;;;;2.03;1.90;;;21.00;86.80;21.40;96331.00;;;;5091629;28;20211;-84
2022/08/20 00:32:05;;;;;;;1.70;1.60;;;21.00;86.70;21.40;96324.00;;;;5092027;28;20217;-85
2022/08/20 00:34:39;;;;;;;2.80;2.60;;;21.00;87.70;21.40;96330.00;;;;5092222;28;20707;-85
2022/08/20 00:37:06;;;;;;;2.10;2.00;;;21.00;87.90;21.50;96331.00;;;;5091005;28;20234;-84
2022/08/20 00:39:33;;;;;;;2.17;2.07;;;21.00;87.10;21.50;96332.00;;;;5093294;28;20222;-84
2022/08/20 00:42:02;;;;;;;2.10;2.00;;;21.00;87.10;21.50;96338.00;;;;5093335;28;20284;-86
2022/08/20 00:44:30;;;;;;;2.40;2.30;;;21.00;87.10;21.50;96340.00;;;;5093290;28;20203;-85
2022/08/20 00:46:57;;;;;;;2.13;2.03;;;21.00;87.20;21.50;96337.00;;;;5092699;28;20542;-85
2022/08/20 00:49:29;;;;;;;2.27;2.17;;;21.00;87.20;21.50;96338.00;;;;5093288;28;20261;-87
2022/08/20 00:52:05;;;;;;;2.27;2.17;;;21.00;87.30;21.50;96344.00;;;;5093218;28;20210;-85
2022/08/20 00:54:39;;;;;;;2.10;2.00;;;21.00;87.40;21.50;96339.00;;;;5092641;28;20180;-85
2022/08/20 00:57:15;;;;;;;2.77;2.57;;;21.10;87.50;21.50;96342.00;;;;5092414;28;20240;-89
2022/08/20 00:59:51;;;;;;;2.13;2.00;;;21.00;87.50;21.60;96337.00;;;;5091441;28;20249;-85
2022/08/20 01:02:22;;;;;;;2.43;2.23;;;21.10;87.60;21.60;96343.00;;;;5090996;28;20284;-85
2022/08/20 01:04:51;;;;;;;2.63;2.53;;;21.10;87.70;21.60;96343.00;;;;5091470;28;20183;-86
2022/08/20 01:07:21;;;;;;;3.30;2.97;;;21.10;87.60;21.60;96344.00;;;;5091889;28;20199;-85
2022/08/20 01:09:49;;;;;;;2.80;2.60;;;21.10;87.60;21.60;96344.00;;;;5091496;28;20304;-85
2022/08/20 01:12:18;;;;;;;3.10;2.90;;;21.10;88.40;21.60;96340.00;;;;5091679;28;20257;-85
2022/08/20 01:14:47;;;;;;;2.20;2.10;;;21.10;87.70;21.70;96340.00;;;;5092288;28;20559;-85
2022/08/20 01:17:22;;;;;;;3.13;2.90;;;21.10;87.70;21.70;96340.00;;;;5092325;28;20565;-85
2022/08/20 01:19:55;;;;;;;2.57;2.37;;;21.20;87.90;21.70;96348.00;;;;5092032;28;20268;-86
2022/08/20 01:25:33;;;;;;;2.60;2.50;;;21.20;88.10;21.70;96346.00;;;;5092450;28;20679;-85
2022/08/20 01:28:02;;;;;;;2.60;2.50;;;21.20;88.20;21.70;96350.00;;;;5092187;28;20224;-85
2022/08/20 01:30:31;;;;;;;2.90;2.70;;;21.20;88.10;21.80;96353.00;;;;5092126;28;20226;-84
2022/08/20 01:32:58;;;;;;;2.93;2.73;;;21.20;88.20;21.80;96356.00;;;;5118937;22;20246;-88
2022/08/20 01:35:28;;;;;;;3.70;3.00;;;21.20;88.30;21.80;96357.00;;;;5112517;28;20225;-87
2022/08/20 01:37:55;;;;;;;2.53;2.33;;;21.30;88.40;21.80;96349.00;;;;5112779;28;20300;-88
2022/08/20 01:40:43;;;;;;;3.40;3.20;;;21.30;88.40;21.80;96342.00;;;;5112796;28;20189;-88
2022/08/20 01:43:12;;;;;;;3.03;2.73;;;21.30;88.60;21.90;96341.00;;;;5112012;28;20227;-88
2022/08/20 01:45:39;;;;;;;3.10;2.90;;;21.30;88.50;21.90;96348.00;;;;5112517;28;20575;-88
2022/08/20 01:48:07;;;;;;;2.97;2.77;;;21.30;88.50;21.90;96353.00;;;;5113032;28;20257;-89
2022/08/20 01:50:38;;;;;;;3.43;3.10;;;21.30;88.60;21.90;96344.00;;;;5112573;28;20197;-88
2022/08/20 01:53:17;;;;;;;3.50;2.63;;;21.40;88.50;21.90;96344.00;;;;5112225;28;20206;-87
2022/08/20 01:55:44;;;;;;;3.47;3.17;;;21.40;88.60;21.90;96341.00;;;;5111171;28;20198;-86
2022/08/20 01:58:13;;;;;;;2.90;2.70;;;21.40;88.50;21.90;96346.00;;;;5111925;28;20230;-87
2022/08/20 02:00:41;;;;;;;3.07;2.83;;;21.30;88.30;21.80;96337.00;;;;5111668;28;20271;-88
2022/08/20 02:03:08;;;;;;;3.83;3.47;;;21.40;88.20;21.80;96339.00;;;;5126428;28;20226;-87
2022/08/20 02:05:36;;;;;;;3.40;3.20;;;21.30;88.20;21.80;96341.00;;;;5131418;28;20281;-88
2022/08/20 02:08:04;;;;;;;3.00;2.80;;;21.30;88.20;21.70;96347.00;;;;5131763;28;20312;-88
2022/08/20 02:10:32;;;;;;;3.60;3.30;;;21.30;88.20;21.70;96355.00;;;;5131436;27;20616;-88
2022/08/20 02:13:00;;;;;;;2.90;2.67;;;21.30;88.20;21.70;96352.00;;;;5134141;27;20676;-88
2022/08/20 02:15:29;;;;;;;3.50;3.30;;;21.20;88.30;21.70;96350.00;;;;5135356;27;20219;-88
2022/08/20 02:17:56;;;;;;;3.03;2.83;;;21.20;88.40;21.70;96352.00;;;;5135489;27;20657;-88
2022/08/20 02:20:30;;;;;;;3.23;2.93;;;21.20;88.50;21.70;96357.00;;;;5135340;27;20286;-87
2022/08/20 02:23:00;;;;;;;3.27;2.90;;;21.20;88.60;21.70;96362.00;;;;5134978;27;20750;-88
2022/08/20 02:25:31;;;;;;;3.73;3.43;;;21.20;88.60;21.70;96355.00;;;;5135108;27;20288;-87
2022/08/20 02:28:05;;;;;;;3.23;3.00;;;21.20;88.70;21.70;96358.00;;;;5135406;27;20252;-87
2022/08/20 02:30:37;;;;;;;3.30;3.00;;;21.20;88.60;21.60;96363.00;;;;5135651;27;20563;-87
2022/08/20 02:33:10;;;;;;;3.23;3.03;;;21.20;88.60;21.60;96359.00;;;;5120795;27;20202;-87
2022/08/20 02:35:39;;;;;;;3.60;3.30;;;21.20;88.70;21.60;96362.00;;;;5114209;28;20273;-88
2022/08/20 02:38:07;;;;;;;3.17;2.97;;;21.10;88.60;21.60;96356.00;;;;5114473;28;20246;-88
2022/08/20 02:40:34;;;;;;;3.40;3.10;;;21.10;88.70;21.60;96358.00;;;;5114306;28;20275;-89
2022/08/20 02:43:04;;;;;;;3.23;2.97;;;21.10;88.70;21.50;96359.00;;;;5114305;28;20780;-89
2022/08/20 02:45:35;;;;;;;3.27;3.07;;;21.10;88.90;21.50;96356.00;;;;5114257;28;20282;-88
2022/08/20 02:48:04;;;;;;;3.43;3.23;;;21.10;88.90;21.50;96360.00;;;;5114513;28;20301;-88
2022/08/20 02:50:31;;;;;;;3.13;2.93;;;21.10;88.80;21.50;96355.00;;;;5114269;28;20230;-88
2022/08/20 02:52:59;;;;;;;3.50;3.30;;;21.00;88.80;21.50;96360.00;;;;5114544;28;20275;-90
2022/08/20 02:55:26;;;;;;;3.70;3.00;;;21.00;89.00;21.50;96358.00;;;;5113961;28;20202;-89
2022/08/20 02:57:54;;;;;;;3.40;3.20;;;21.00;89.20;21.50;96358.00;;;;5114115;28;20312;-89
2022/08/20 03:00:22;;;;;;;3.47;3.17;;;21.00;89.40;21.50;96359.00;;;;5113908;28;20200;-89
2022/08/20 03:02:51;;;;;;;3.07;2.87;;;21.00;89.50;21.50;96355.00;;;;5126660;27;20283;-88
2022/08/20 03:05:18;;;;;;;5.27;3.43;;;21.00;89.70;21.50;96355.00;;;;5134445;27;20624;-89
2022/08/20 03:07:52;;;;;;;3.40;3.10;;;21.00;89.70;21.60;96349.00;;;;5134729;27;20252;-90
2022/08/20 03:10:24;;;;;;;4.00;3.70;;;21.00;89.70;21.60;96348.00;;;;5137815;27;20219;-90
2022/08/20 03:12:52;;;;;;;4.27;3.80;;;21.00;89.80;21.60;96353.00;;;;5135515;27;20289;-90
2022/08/20 03:15:20;;;;;;;3.97;3.67;;;21.00;89.90;21.60;96351.00;;;;5133766;27;20658;-90
2022/08/20 03:17:49;;;;;;;4.10;3.80;;;21.00;89.90;21.60;96355.00;;;;5134513;27;20249;-89
2022/08/20 03:20:17;;;;;;;3.73;3.43;;;21.10;90.00;21.60;96355.00;;;;5134588;27;20385;-90
2022/08/20 03:22:44;;;;;;;3.97;3.63;;;21.10;90.00;21.70;96354.00;;;;5134087;27;20307;-90
2022/08/20 03:25:12;;;;;;;3.67;3.47;;;21.10;90.00;21.70;96353.00;;;;5134015;27;20201;-89
2022/08/20 03:27:39;;;;;;;4.20;3.80;;;21.10;90.00;21.70;96354.00;;;;5134445;27;20269;-89
2022/08/20 03:30:12;;;;;;;4.13;3.83;;;21.10;90.00;21.70;96355.00;;;;5134398;27;20186;-89
2022/08/20 03:32:40;;;;;;;3.73;3.53;;;21.10;90.00;21.70;96356.00;;;;5133980;27;20212;-89
2022/08/20 03:35:13;;;;;;;3.60;3.40;;;21.20;90.00;21.70;96361.00;;;;5133735;27;20293;-89
2022/08/20 03:37:41;;;;;;;3.97;3.63;;;21.20;90.00;21.70;96362.00;;;;5134127;27;20231;-89
2022/08/20 03:40:15;;;;;;;3.70;3.50;;;21.20;90.10;21.70;96366.00;;;;5134110;27;20204;-88
2022/08/20 03:42:42;;;;;;;3.53;3.33;;;21.20;90.10;21.80;96362.00;;;;5134125;27;20215;-88
2022/08/20 03:45:12;;;;;;;4.23;3.87;;;21.20;90.10;21.80;96361.00;;;;5133300;27;20611;-88
2022/08/20 03:47:41;;;;;;;3.93;3.63;;;21.20;90.10;21.80;96378.00;;;;5133856;27;20267;-89
2022/08/20 03:50:14;;;;;;;3.90;3.60;;;21.20;90.10;21.80;96371.00;;;;5133636;27;20193;-90
2022/08/20 03:52:42;;;;;;;4.17;3.90;;;21.20;90.10;21.80;96374.00;;;;5134109;27;20667;-89
2022/08/20 03:55:10;;;;;;;4.07;3.77;;;21.30;90.10;21.80;96378.00;;;;5133519;27;20226;-89
2022/08/20 03:57:45;;;;;;;4.10;3.80;;;21.30;90.10;21.80;96375.00;;;;5133683;27;20260;-88
2022/08/20 04:00:15;;;;;;;5.10;4.70;;;21.30;90.10;21.80;96385.00;;;;5133983;27;20284;-89
2022/08/20 04:02:42;;;;;;;4.50;4.20;;;21.30;90.10;21.80;96380.00;;;;5122416;27;20312;-88
2022/08/20 04:05:11;;;;;;;5.33;4.93;;;21.30;90.10;21.80;96381.00;;;;5112488;28;20681;-88
2022/08/20 04:07:39;;;;;;;5.57;4.77;;;21.30;90.20;21.80;96377.00;;;;5112605;28;20257;-88
2022/08/20 04:10:10;;;;;;;5.43;4.93;;;21.30;90.10;21.80;96381.00;;;;5112780;28;20656;-88
2022/08/20 04:12:39;;;;;;;5.10;4.70;;;21.30;90.10;21.80;96381.00;;;;5112748;28;20707;-87
2022/08/20 04:15:09;;;;;;;5.50;4.53;;;21.30;90.20;21.80;96381.00;;;;5112449;28;20197;-88
2022/08/20 04:17:40;;;;;;;6.40;5.80;;;21.30;90.20;21.80;96382.00;;;;5112854;28;20868;-88
2022/08/20 04:20:13;;;;;;;6.50;5.87;;;21.30;90.20;21.80;96379.00;;;;5112670;28;20631;-88
2022/08/20 04:22:40;;;;;;;7.07;6.37;;;21.30;90.20;21.80;96379.00;;;;5112872;28;20228;-87
2022/08/20 04:25:09;;;;;;;5.93;5.53;;;21.30;90.20;21.80;96377.00;;;;5113720;28;20194;-90
2022/08/20 04:27:37;;;;;;;6.67;6.07;;;21.30;90.30;21.80;96373.00;;;;5115410;28;20222;-87
2022/08/20 04:30:09;;;;;;;6.87;6.27;;;21.30;90.30;21.80;96375.00;;;;5119438;28;20202;-87
2022/08/20 04:32:37;;;;;;;7.03;6.30;;;21.30;90.40;21.80;96382.00;;;;5103435;28;20205;-87
2022/08/20 04:35:06;;;;;;;6.10;5.50;;;21.30;90.50;21.80;96383.00;;;;5091235;28;20207;-88
2022/08/20 04:37:37;;;;;;;6.53;6.03;;;21.30;90.40;21.80;96389.00;;;;5092538;28;20227;-89
2022/08/20 04:42:50;;;;;;;6.77;6.23;;;21.30;90.80;21.90;96403.00;;;;5092321;28;20589;-88
2022/08/20 04:45:18;;;;;;;7.80;7.00;;;21.30;90.40;21.90;96388.00;;;;5092092;28;20237;-88
2022/08/20 04:47:45;;;;;;;6.87;6.27;;;21.40;90.50;21.90;96395.00;;;;5092695;28;20222;-88
2022/08/20 04:50:14;;;;;;;6.57;5.97;;;21.40;90.50;21.90;96394.00;;;;5092547;28;20728;-87
2022/08/20 04:52:42;;;;;;;7.60;6.90;;;21.40;90.50;21.90;96390.00;;;;5092898;28;20652;-89
2022/08/20 04:55:10;;;;;;;7.03;6.43;;;21.40;90.50;21.90;96398.00;;;;5092451;28;20195;-89
2022/08/20 04:57:38;;;;;;;8.77;7.97;;;21.40;90.40;21.90;96392.00;;;;5092830;28;20589;-89
2022/08/20 05:00:11;;;;;;;8.43;7.63;;;21.40;90.70;21.90;96398.00;;;;5092799;28;20679;-88
2022/08/20 05:02:39;;;;;;;7.40;6.60;;;21.40;90.50;21.90;96404.00;;;;5114112;27;20708;-88
2022/08/20 05:05:07;;;;;;;8.40;7.60;;;21.40;90.50;21.90;96412.00;;;;5132440;27;20567;-88
2022/08/20 05:07:39;;;;;;;9.20;8.23;;;21.40;90.50;21.90;96410.00;;;;5133067;28;20640;-88
2022/08/20 05:10:12;;;;;;;8.37;7.67;;;21.40;90.50;22.00;96413.00;;;;5132956;28;20284;-87
2022/08/20 05:12:41;;;;;;;9.57;8.57;;;21.40;90.60;22.00;96420.00;;;;5132918;28;20284;-88
2022/08/20 05:15:11;;;;;;;9.33;8.43;;;21.50;90.50;22.00;96420.00;;;;5132302;28;20246;-88
2022/08/20 05:17:40;;;;;;;8.90;8.10;;;21.50;90.50;22.00;96412.00;;;;5132645;28;20221;-88
2022/08/20 05:20:11;;;;;;;9.27;8.37;;;21.50;90.50;22.00;96420.00;;;;5132519;28;20197;-87
2022/08/20 05:22:39;;;;;;;8.63;7.77;;;21.50;90.50;22.00;96418.00;;;;5132554;28;20261;-88
2022/08/20 05:25:08;;;;;;;10.43;9.37;;;21.50;90.50;22.00;96425.00;;;;5131927;28;20276;-87
2022/08/20 05:27:36;;;;;;;9.50;8.60;;;21.50;90.50;22.00;96432.00;;;;5132078;28;20297;-88
2022/08/20 05:30:10;;;;;;;9.73;8.80;;;21.50;90.50;22.00;96435.00;;;;5132430;28;20225;-88
2022/08/20 05:32:38;;;;;;;10.47;9.40;;;21.50;90.60;22.00;96439.00;;;;5121079;28;20217;-90
2022/08/20 05:35:09;;;;;;;9.93;9.03;;;21.50;90.50;22.00;96432.00;;;;5110831;28;20775;-88
2022/08/20 05:37:37;;;;;;;10.30;9.17;;;21.50;90.50;22.00;96435.00;;;;5111482;28;20280;-87
2022/08/20 05:40:13;;;;;;;10.10;9.03;;;21.50;90.50;22.00;96439.00;;;;5111623;28;20577;-88
2022/08/20 05:42:42;;;;;;;10.57;9.47;;;21.50;90.60;22.00;96440.00;;;;5111311;28;20214;-87
2022/08/20 05:45:10;;;;;;;10.07;8.93;;;21.50;90.70;22.10;96435.00;;;;5111338;28;20210;-88
2022/08/20 05:47:40;;;;;;;9.90;8.90;;;21.50;90.70;22.10;96439.00;;;;5115289;28;20226;-89
2022/08/20 05:50:11;;;;;;;10.47;9.47;;;21.60;90.80;22.10;96443.00;;;;5115581;28;20611;-88
2022/08/20 05:52:39;;;;;;;11.40;10.10;;;21.60;90.90;22.20;96446.00;;;;5115618;28;20207;-88
2022/08/20 05:55:12;;;;;;;10.97;9.80;;;21.60;90.90;22.20;96448.00;;;;5114972;28;20210;-88
2022/08/20 05:57:40;;;;;;;11.07;9.90;;;21.60;90.80;22.20;96449.00;;;;5115391;28;20407;-88
2022/08/20 06:00:12;;;;;;;11.47;10.37;;;21.60;90.80;22.20;96445.00;;;;5115314;28;20230;-87
2022/08/20 06:05:26;;;;;;;10.47;9.37;;;21.70;90.80;22.20;96442.00;;;;5135432;27;20568;-87
2022/08/20 06:07:54;;;;;;;10.23;9.30;;;21.70;90.80;22.30;96447.00;;;;5135600;27;20309;-87
2022/08/20 06:10:22;;;;;;;10.13;9.13;;;21.70;90.80;22.30;96448.00;;;;5135727;27;20222;-87
2022/08/20 06:12:52;;;;;;;10.30;9.30;;;21.70;90.80;22.30;96442.00;;;;5135204;27;20659;-87
2022/08/20 06:15:19;;;;;;;9.63;8.73;;;21.70;90.80;22.30;96443.00;;;;5135476;27;20584;-87
2022/08/20 06:17:47;;;;;;;10.43;9.47;;;21.70;90.90;22.30;96445.00;;;;5135468;27;20221;-87
2022/08/20 06:20:14;;;;;;;10.97;9.97;;;21.70;90.90;22.40;96446.00;;;;5135565;27;20244;-87
2022/08/20 06:22:41;;;;;;;12.70;9.93;;;21.80;90.90;22.40;96443.00;;;;5135217;27;20228;-88
2022/08/20 06:25:09;;;;;;;10.10;9.13;;;21.80;90.90;22.40;96454.00;;;;5135169;27;20205;-88
2022/08/20 06:27:43;;;;;;;9.67;8.87;;;21.80;90.90;22.40;96457.00;;;;5135104;27;20205;-88
2022/08/20 06:30:14;;;;;;;10.40;9.37;;;21.80;90.90;22.40;96455.00;;;;5135098;27;20202;-87
2022/08/20 06:32:41;;;;;;;10.47;9.47;;;21.80;90.90;22.50;96459.00;;;;5135037;27;20668;-88
2022/08/20 06:35:10;;;;;;;9.37;8.37;;;21.80;91.00;22.50;96461.00;;;;5134535;27;20231;-88
2022/08/20 06:37:39;;;;;;;10.00;9.00;;;21.90;91.00;22.50;96453.00;;;;5134967;27;20300;-89
2022/08/20 06:40:12;;;;;;;9.83;8.97;;;21.90;91.00;22.50;96466.00;;;;5135149;27;20190;-88
2022/08/20 06:42:42;;;;;;;9.23;8.33;;;21.90;91.00;22.50;96469.00;;;;5135051;27;20225;-87
2022/08/20 06:45:10;;;;;;;10.17;9.03;;;21.90;91.10;22.60;96464.00;;;;5135393;27;20194;-87
2022/08/20 06:47:42;;;;;;;9.60;8.67;;;21.90;91.00;22.60;96463.00;;;;5134333;27;20306;-88
2022/08/20 06:50:12;;;;;;;9.73;8.73;;;22.00;91.00;22.60;96467.00;;;;5135003;27;20251;-87
2022/08/20 06:52:40;;;;;;;9.57;8.57;;;22.00;91.00;22.60;96469.00;;;;5134794;27;20224;-89
2022/08/20 06:55:10;;;;;;;9.67;8.77;;;22.00;91.00;22.60;96465.00;;;;5134558;27;20225;-88
2022/08/20 06:57:39;;;;;;;9.90;8.93;;;22.00;90.90;22.60;96468.00;;;;5133911;27;20734;-88
2022/08/20 07:00:13;;;;;;;8.70;7.93;;;22.00;90.90;22.60;96479.00;;;;5134820;27;20267;-89
2022/08/20 07:02:41;;;;;;;9.60;8.70;;;22.00;90.90;22.70;96475.00;;;;5122893;27;20225;-87
2022/08/20 07:05:10;;;;;;;9.37;8.47;;;22.00;90.90;22.60;96486.00;;;;5114039;28;20294;-87
2022/08/20 07:07:37;;;;;;;8.93;8.03;;;22.00;90.80;22.70;96480.00;;;;5113973;28;20586;-88
2022/08/20 07:10:07;;;;;;;9.57;8.60;;;22.10;90.90;22.70;96476.00;;;;5114180;28;20290;-87
2022/08/20 07:12:35;;;;;;;8.70;7.87;;;22.10;90.80;22.70;96472.00;;;;5113888;28;20218;-88
2022/08/20 07:15:03;;;;;;;9.13;8.23;;;22.10;90.80;22.70;96470.00;;;;5113754;28;20206;-88
2022/08/20 07:17:32;;;;;;;8.80;7.67;;;22.10;90.80;22.70;96475.00;;;;5113714;28;20638;-87
2022/08/20 07:20:03;;;;;;;9.93;7.97;;;22.10;90.80;22.70;96484.00;;;;5114957;28;20225;-87
2022/08/20 07:22:30;;;;;;;9.93;8.63;;;22.10;90.80;22.70;96487.00;;;;5121629;28;20194;-85
2022/08/20 07:24:57;;;;;;;9.07;8.27;;;22.10;90.90;22.80;96479.00;;;;5117674;28;20226;-87
2022/08/20 07:27:24;;;;;;;9.13;8.27;;;22.10;90.90;22.80;96486.00;;;;5115615;28;20246;-87
2022/08/20 07:32:38;;;;;;;8.20;7.53;;;22.20;90.90;22.90;96493.00;;;;5124559;27;20261;-86
2022/08/20 07:35:09;;;;;;;8.27;7.47;;;22.10;90.90;22.90;96494.00;;;;5133872;27;20223;-87
2022/08/20 07:37:40;;;;;;;8.50;7.73;;;22.20;90.90;22.90;96492.00;;;;5135639;27;20210;-88
2022/08/20 07:40:12;;;;;;;8.53;7.83;;;22.20;90.90;23.00;96495.00;;;;5134972;27;20186;-86
2022/08/20 07:42:40;;;;;;;8.70;7.90;;;22.30;91.00;23.00;96499.00;;;;5134604;27;20235;-87
2022/08/20 07:45:09;;;;;;;8.30;7.47;;;22.20;90.90;23.00;96497.00;;;;5134828;27;20222;-88
2022/08/20 07:47:38;;;;;;;8.67;7.87;;;22.30;90.80;23.00;96500.00;;;;5134729;27;20237;-89
2022/08/20 07:50:09;;;;;;;9.00;8.13;;;22.30;90.80;23.00;96504.00;;;;5133260;27;20258;-90
2022/08/20 07:52:37;;;;;;;8.30;7.50;;;22.30;90.80;23.00;96498.00;;;;5134425;27;20198;-91
2022/08/20 07:55:06;;;;;;;7.70;7.00;;;22.30;90.90;23.10;96504.00;;;;5133776;27;20209;-91
2022/08/20 07:57:33;;;;;;;7.87;7.23;;;22.40;90.90;23.10;96505.00;;;;5134307;27;20242;-91
2022/08/20 08:00:00;;;;;;;7.67;7.03;;;22.40;91.00;23.20;96506.00;;;;5133015;27;20706;-92
2022/08/20 08:02:28;;;;;;;7.87;7.17;;;22.40;91.00;23.20;96509.00;;;;5124019;27;20202;-91
2022/08/20 08:04:57;;;;;;;8.60;7.77;;;22.40;91.00;23.20;96515.00;;;;5112547;28;20776;-90
2022/08/20 08:07:25;;;;;;;8.23;7.43;;;22.50;91.00;23.20;96507.00;;;;5112939;28;20211;-91
2022/08/20 08:09:52;;;;;;;7.47;6.87;;;22.50;90.90;23.30;96513.00;;;;5113134;28;20244;-91
2022/08/20 08:12:20;;;;;;;8.43;7.63;;;22.50;90.90;23.30;96521.00;;;;5113289;28;20258;-92
2022/08/20 08:14:49;;;;;;;7.13;6.53;;;22.50;90.80;23.30;96518.00;;;;5112969;28;20201;-91
2022/08/20 08:17:19;;;;;;;7.57;6.90;;;22.50;90.80;23.30;96507.00;;;;5112669;28;20363;-92
2022/08/20 08:19:50;;;;;;;8.27;6.97;;;22.60;90.80;23.30;96508.00;;;;5112917;28;20202;-90
2022/08/20 08:22:19;;;;;;;6.57;5.97;;;22.50;90.70;23.30;96527.00;;;;5112760;28;20542;-90
2022/08/20 08:24:47;;;;;;;7.40;6.63;;;22.60;90.70;23.30;96528.00;;;;5112525;28;20276;-91
2022/08/20 08:27:17;;;;;;;7.57;6.87;;;22.60;90.70;23.30;96519.00;;;;5112410;28;20218;-89
2022/08/20 08:29:45;;;;;;;6.97;6.37;;;22.60;90.60;23.30;96533.00;;;;5112582;28;20195;-91
2022/08/20 08:32:13;;;;;;;7.43;6.80;;;22.60;90.60;23.30;96532.00;;;;5105053;28;20207;-90
2022/08/20 08:34:40;;;;;;;7.03;6.43;;;22.60;90.60;23.30;96534.00;;;;5091470;28;20229;-88
2022/08/20 08:37:07;;;;;;;7.17;6.40;;;22.60;90.60;23.20;96537.00;;;;5091659;28;20609;-88
2022/08/20 08:39:35;;;;;;;7.27;6.67;;;22.50;90.50;23.20;96541.00;;;;5091791;28;20239;-89
2022/08/20 08:42:20;;;;;;;6.53;6.03;;;22.50;90.50;23.20;96544.00;;;;5091938;28;20200;-89
2022/08/20 08:44:48;;;;;;;6.07;5.57;;;22.50;90.40;23.20;96541.00;;;;5091621;28;20218;-89
2022/08/20 08:47:25;;;;;;;6.23;5.73;;;22.60;90.50;23.20;96548.00;;;;5091812;28;20211;-88
2022/08/20 08:49:52;;;;;;;6.53;5.93;;;22.50;90.40;23.20;96546.00;;;;5091924;28;20606;-89
2022/08/20 08:52:25;;;;;;;6.77;6.17;;;22.50;90.40;23.20;96550.00;;;;5091675;28;20249;-89
2022/08/20 08:55:00;;;;;;;8.37;5.47;;;22.50;90.40;23.10;96545.00;;;;5091684;28;20310;-88
2022/08/20 08:57:27;;;;;;;6.63;6.10;;;22.50;90.40;23.10;96551.00;;;;5092045;28;20309;-89
2022/08/20 09:00:00;;;;;;;6.33;5.73;;;22.50;90.40;23.10;96550.00;;;;5091672;28;20197;-89
2022/08/20 09:02:30;;;;;;;6.07;5.57;;;22.40;90.40;23.10;96551.00;;;;5110533;27;20288;-88
2022/08/20 09:05:01;;;;;;;5.73;5.20;;;22.50;90.50;23.10;96559.00;;;;5132010;27;20226;-90
2022/08/20 09:07:33;;;;;;;5.37;4.87;;;22.40;90.50;23.10;96557.00;;;;5132568;27;20305;-89
2022/08/20 09:10:02;;;;;;;6.30;5.73;;;22.40;90.40;23.00;96573.00;;;;5132387;28;20222;-89
2022/08/20 09:12:30;;;;;;;6.00;5.50;;;22.40;90.40;23.00;96568.00;;;;5132169;28;20663;-88
2022/08/20 09:14:57;;;;;;;6.00;5.50;;;22.40;90.40;23.00;96565.00;;;;5132018;28;20237;-88
2022/08/20 09:17:25;;;;;;;5.73;5.23;;;22.30;90.40;23.00;96558.00;;;;5132278;28;20762;-88
2022/08/20 09:19:52;;;;;;;5.70;5.10;;;22.30;90.40;23.00;96561.00;;;;5132116;28;20845;-88
2022/08/20 09:22:24;;;;;;;6.43;5.90;;;22.30;90.50;22.90;96566.00;;;;5135807;27;20221;-89
2022/08/20 09:24:52;;;;;;;6.17;5.57;;;22.30;90.60;22.90;96567.00;;;;5135808;27;20271;-89
2022/08/20 09:27:20;;;;;;;5.87;5.33;;;22.30;90.70;22.90;96571.00;;;;5136324;27;20238;-89
2022/08/20 09:29:47;;;;;;;6.77;5.90;;;22.30;90.70;22.90;96568.00;;;;5136186;27;20247;-88
2022/08/20 09:32:20;;;;;;;6.00;5.50;;;22.30;90.80;22.90;96575.00;;;;5128415;27;20249;-88
2022/08/20 09:34:50;;;;;;;6.00;5.50;;;22.30;90.80;22.90;96575.00;;;;5115106;28;20748;-88
2022/08/20 09:37:18;;;;;;;6.47;5.57;;;22.30;90.70;22.90;96575.00;;;;5115760;28;20248;-89
2022/08/20 09:39:45;;;;;;;6.13;5.63;;;22.30;90.60;22.80;96575.00;;;;5115644;28;20602;-88
2022/08/20 09:42:15;;;;;;;5.57;5.03;;;22.30;90.60;22.80;96569.00;;;;5115933;28;20364;-89
2022/08/20 09:44:45;;;;;;;6.17;5.67;;;22.20;90.60;22.80;96563.00;;;;5115067;28;20215;-89
2022/08/20 09:47:12;;;;;;;5.70;5.30;;;22.20;90.70;22.80;96563.00;;;;5115244;28;20215;-90
2022/08/20 09:49:40;;;;;;;6.10;5.60;;;22.20;90.80;22.80;96570.00;;;;5115180;28;20278;-89
2022/08/20 09:52:20;;;;;;;6.77;6.17;;;22.20;90.90;22.80;96565.00;;;;5115434;28;20258;-89
2022/08/20 09:54:49;;;;;;;5.03;4.67;;;22.20;90.90;22.80;96572.00;;;;5114955;28;20222;-88
2022/08/20 09:57:16;;;;;;;5.23;4.83;;;22.20;91.00;22.80;96562.00;;;;5115482;28;20223;-89
2022/08/20 09:59:51;;;;;;;6.07;5.57;;;22.20;91.10;22.90;96563.00;;;;5115112;28;20672;-88
2022/08/20 10:02:18;;;;;;;6.07;5.47;;;22.20;91.00;22.80;96563.00;;;;5106905;28;20327;-89
2022/08/20 10:04:45;;;;;;;6.23;5.70;;;22.20;91.10;22.90;96566.00;;;;5093811;28;20787;-88
2022/08/20 10:07:13;;;;;;;6.23;5.67;;;22.20;91.10;22.90;96568.00;;;;5094778;28;20304;-90
2022/08/20 10:09:40;;;;;;;6.23;5.73;;;22.20;91.20;22.90;96573.00;;;;5110765;27;20644;-88
2022/08/20 10:12:08;;;;;;;6.37;5.87;;;22.20;91.10;22.80;96573.00;;;;5115625;28;20218;-89
2022/08/20 10:14:35;;;;;;;7.50;5.83;;;22.20;91.20;22.90;96577.00;;;;5110396;28;20616;-89
2022/08/20 10:17:04;;;;;;;6.00;5.50;;;22.20;91.20;22.90;96572.00;;;;5118072;27;20271;-87
2022/08/20 10:19:32;;;;;;;6.03;5.53;;;22.20;91.30;22.90;96579.00;;;;5130336;27;20526;-86
2022/08/20 10:22:03;;;;;;;6.67;6.17;;;22.20;91.30;22.90;96567.00;;;;5126504;27;20222;-88
2022/08/20 10:24:30;;;;;;;7.03;6.37;;;22.20;91.30;23.00;96580.00;;;;5121636;27;20327;-87
2022/08/20 10:27:00;;;;;;;6.83;6.23;;;22.30;91.30;23.00;96570.00;;;;5129513;27;20263;-88
2022/08/20 10:29:29;;;;;;;6.97;6.33;;;22.30;91.30;23.00;96568.00;;;;5140798;27;20202;-87
2022/08/20 10:31:57;;;;;;;6.67;6.07;;;22.30;91.20;23.00;96569.00;;;;5144737;27;20206;-88
2022/08/20 10:34:25;;;;;;;6.47;5.97;;;22.30;91.30;23.00;96576.00;;;;5153521;27;20186;-87
2022/08/20 10:36:52;;;;;;;7.03;6.43;;;22.30;91.30;23.10;96578.00;;;;5121104;27;20206;-86
2022/08/20 10:39:20;;;;;;;7.37;6.40;;;22.30;91.30;23.10;96573.00;;;;5124469;27;20275;-86
2022/08/20 10:41:47;;;;;;;6.67;6.17;;;22.40;91.40;23.10;96572.00;;;;5112547;28;20206;-87
2022/08/20 10:44:16;;;;;;;6.80;6.20;;;22.40;91.40;23.20;96566.00;;;;5115918;27;20255;-86
2022/08/20 10:46:44;;;;;;;6.77;6.27;;;22.40;91.40;23.20;96574.00;;;;5112483;27;20260;-87
2022/08/20 10:49:12;;;;;;;7.00;6.30;;;22.50;91.50;23.30;96573.00;;;;5136311;27;20667;-87
2022/08/20 10:51:40;;;;;;;6.13;5.63;;;22.50;91.50;23.30;96580.00;;;;5121829;27;20194;-87
2022/08/20 10:54:07;;;;;;;6.87;6.27;;;22.50;91.50;23.40;96580.00;;;;5134853;27;20194;-88
2022/08/20 10:56:35;;;;;;;6.90;6.20;;;22.60;91.50;23.40;96571.00;;;;5121166;27;20651;-89
2022/08/20 10:59:02;;;;;;;6.73;6.13;;;22.60;91.50;23.40;96570.00;;;;5131349;27;20214;-89
2022/08/20 11:01:29;;;;;;;6.30;5.80;;;22.60;91.50;23.40;96567.00;;;;5124421;27;20190;-89
2022/08/20 11:03:56;;;;;;;7.50;6.73;;;22.60;91.50;23.50;96567.00;;;;5129439;27;20238;-89
2022/08/20 11:06:23;;;;;;;6.80;6.20;;;22.60;91.50;23.50;96561.00;;;;5122776;27;20238;-87
2022/08/20 11:08:52;;;;;;;7.27;6.67;;;22.70;91.50;23.50;96562.00;;;;5105644;27;20288;-88
2022/08/20 11:11:19;;;;;;;6.40;5.90;;;22.70;91.40;23.50;96555.00;;;;5106252;27;20237;-88
2022/08/20 11:13:46;;;;;;;6.53;6.03;;;22.70;91.40;23.50;96558.00;;;;5110525;27;20228;-88
2022/08/20 11:16:14;;;;;;;7.47;6.77;;;22.70;91.40;23.50;96564.00;;;;5113935;28;20779;-88